Aviation Digital Data Service (ADDS)

Output produced by METARs form (1640 UTC 30 October 2014)
found at http://www.aviationweather.gov/adds/metars/
 
KWWD 301635Z AUTO 30005KT 10SM FEW070 14/04 A3003 RMK AO1